Time;durP1;ratioP1;P1;durP2;ratioP2;P2;SDS_P1;SDS_P2;PMS_P1;PMS_P2;Temp;Humidity;BMP_temperature;BMP_pressure;BME280_temperature;BME280_humidity;BME280_pressure;Samples;Min_cycle;Max_cycle;Signal;HPM_P1;HPM_P2
2023/03/06 00:02:00;;;;;;;2.75;2.55;;;16.00;70.10;;;;;;5062213;28;20089;-77
2023/03/06 00:04:25;;;;;;;2.80;2.60;;;16.00;70.20;;;;;;5067936;28;20048;-77
2023/03/06 00:06:51;;;;;;;2.85;2.60;;;16.00;70.20;;;;;;5060165;28;20048;-77
2023/03/06 00:09:16;;;;;;;2.38;2.25;;;16.00;70.20;;;;;;5085696;28;20034;-77
2023/03/06 00:11:42;;;;;;;2.70;2.50;;;16.00;70.40;;;;;;5090897;28;20051;-76
2023/03/06 00:14:08;;;;;;;2.17;2.08;;;16.00;70.10;;;;;;5088238;28;20039;-76
2023/03/06 00:16:33;;;;;;;2.42;2.25;;;16.00;70.60;;;;;;5086385;28;20039;-76
2023/03/06 00:18:59;;;;;;;2.53;2.33;;;16.00;71.50;;;;;;5069513;28;20387;-76
2023/03/06 00:21:24;;;;;;;2.40;2.22;;;16.00;70.80;;;;;;5051227;28;20047;-76
2023/03/06 00:23:50;;;;;;;2.10;2.00;;;16.00;70.50;;;;;;5073348;28;20043;-76
2023/03/06 00:26:15;;;;;;;2.38;2.17;;;16.00;70.80;;;;;;5053402;28;20051;-77
2023/03/06 00:28:41;;;;;;;2.42;2.22;;;15.90;70.70;;;;;;5071180;28;20103;-77
2023/03/06 00:31:07;;;;;;;2.35;1.95;;;15.90;70.70;;;;;;5060896;28;20051;-77
2023/03/06 00:33:32;;;;;;;2.17;2.05;;;15.90;70.60;;;;;;5062675;28;20454;-77
2023/03/06 00:35:58;;;;;;;1.90;1.80;;;15.90;70.80;;;;;;5061287;28;20048;-77
2023/03/06 00:38:26;;;;;;;1.92;1.83;;;15.90;70.90;;;;;;5062327;28;20075;-77
2023/03/06 00:40:51;;;;;;;2.13;2.03;;;15.80;70.90;;;;;;5060758;28;20407;-76
2023/03/06 00:43:17;;;;;;;2.10;2.00;;;15.90;71.00;;;;;;5059734;28;20083;-77
2023/03/06 00:45:43;;;;;;;2.13;2.03;;;15.80;71.00;;;;;;5060363;28;20051;-77
2023/03/06 00:48:08;;;;;;;1.90;1.80;;;15.80;70.90;;;;;;5036835;28;20072;-77
2023/03/06 00:50:35;;;;;;;1.90;1.70;;;15.90;70.90;;;;;;5046734;28;20044;-77
2023/03/06 00:53:00;;;;;;;2.38;2.28;;;15.80;70.90;;;;;;5059905;28;20076;-77
2023/03/06 00:55:28;;;;;;;2.60;2.45;;;15.80;70.80;;;;;;5058271;28;20521;-77
2023/03/06 00:57:53;;;;;;;1.80;1.70;;;15.80;70.90;;;;;;5037178;28;20040;-76
2023/03/06 01:00:19;;;;;;;1.85;1.75;;;15.80;70.80;;;;;;5059929;28;20041;-77
2023/03/06 01:02:45;;;;;;;2.40;2.20;;;15.80;70.80;;;;;;5045056;28;20441;-77
2023/03/06 01:05:12;;;;;;;1.80;1.70;;;15.80;70.50;;;;;;5062358;28;20501;-77
2023/03/06 01:07:37;;;;;;;2.20;2.10;;;15.80;70.20;;;;;;5062028;28;20044;-77
2023/03/06 01:10:04;;;;;;;2.13;2.03;;;15.80;70.30;;;;;;5026246;28;20068;-77
2023/03/06 01:12:30;;;;;;;2.35;2.25;;;15.80;70.30;;;;;;5064043;28;20088;-77
2023/03/06 01:14:55;;;;;;;2.10;2.00;;;15.80;70.80;;;;;;5063679;28;20035;-77
2023/03/06 01:17:21;;;;;;;2.08;1.98;;;15.80;70.90;;;;;;5062529;28;20097;-77
2023/03/06 01:19:47;;;;;;;2.17;2.08;;;15.80;71.10;;;;;;5061898;28;20048;-77
2023/03/06 01:22:12;;;;;;;2.33;2.22;;;15.70;71.10;;;;;;5061941;28;20039;-76
2023/03/06 01:24:38;;;;;;;2.42;2.33;;;15.70;71.00;;;;;;5066911;28;20109;-77
2023/03/06 01:27:03;;;;;;;2.20;2.10;;;15.70;71.00;;;;;;5071816;28;20093;-76
2023/03/06 01:29:29;;;;;;;1.85;1.75;;;15.70;71.10;;;;;;5087579;28;20059;-77
2023/03/06 01:31:55;;;;;;;1.98;1.88;;;15.70;71.80;;;;;;5085098;28;20044;-76
2023/03/06 01:34:20;;;;;;;1.95;1.85;;;15.70;71.10;;;;;;5087328;28;20841;-76
2023/03/06 01:36:46;;;;;;;1.92;1.83;;;15.70;71.10;;;;;;5087151;28;20151;-77
2023/03/06 01:39:11;;;;;;;2.10;2.00;;;15.70;71.20;;;;;;5072588;28;20059;-76
2023/03/06 01:41:37;;;;;;;2.22;2.03;;;15.70;71.20;;;;;;5088354;28;20048;-77
2023/03/06 01:44:03;;;;;;;2.28;2.17;;;15.60;71.10;;;;;;5066287;28;20086;-77
2023/03/06 01:46:32;;;;;;;2.03;1.92;;;15.70;71.20;;;;;;5087196;28;20044;-77
2023/03/06 01:49:06;;;;;;;2.10;2.00;;;15.70;71.20;;;;;;5064750;28;20047;-77
2023/03/06 01:51:34;;;;;;;1.95;1.85;;;15.60;71.20;;;;;;5045634;28;20052;-77
2023/03/06 01:54:03;;;;;;;2.20;2.10;;;15.60;71.20;;;;;;5063587;28;20051;-76
2023/03/06 01:56:28;;;;;;;2.10;2.00;;;15.60;71.10;;;;;;5046129;28;20127;-77
2023/03/06 01:58:54;;;;;;;2.30;2.20;;;15.60;71.10;;;;;;5062939;28;20040;-76
2023/03/06 02:01:19;;;;;;;1.98;1.88;;;15.60;71.30;;;;;;5050572;28;20044;-77
2023/03/06 02:03:46;;;;;;;2.30;2.20;;;15.60;71.10;;;;;;5046862;28;20041;-77
2023/03/06 02:06:11;;;;;;;1.95;1.85;;;15.60;71.20;;;;;;5044725;28;20106;-78
2023/03/06 02:08:37;;;;;;;2.00;1.90;;;15.60;71.10;;;;;;5043262;28;20131;-77
2023/03/06 02:11:35;;;;;;;2.30;2.10;;;15.60;71.10;;;;;;5048932;28;20040;-77
2023/03/06 02:14:00;;;;;;;2.00;1.90;;;15.60;71.30;;;;;;5050434;28;20094;-77
2023/03/06 02:16:28;;;;;;;2.03;1.92;;;15.60;71.40;;;;;;5064699;28;20052;-77
2023/03/06 02:18:54;;;;;;;3.15;1.77;;;15.60;71.40;;;;;;5047681;28;20093;-77
2023/03/06 02:21:39;;;;;;;2.08;1.98;;;15.60;71.30;;;;;;5048515;28;20588;-77
2023/03/06 02:24:07;;;;;;;1.88;1.77;;;15.50;71.50;;;;;;5049096;28;20098;-77
2023/03/06 02:26:33;;;;;;;2.42;2.33;;;15.50;71.60;;;;;;5068380;28;20100;-77
2023/03/06 02:28:59;;;;;;;1.98;1.88;;;15.50;71.30;;;;;;5043996;28;20129;-77
2023/03/06 02:31:27;;;;;;;1.85;1.75;;;15.50;71.40;;;;;;5067949;28;20391;-77
2023/03/06 02:34:07;;;;;;;2.22;1.90;;;15.50;71.60;;;;;;5030628;28;20044;-77
2023/03/06 02:36:37;;;;;;;1.63;1.52;;;15.50;71.70;;;;;;5062407;28;20132;-77
2023/03/06 02:39:03;;;;;;;1.90;1.80;;;15.50;71.60;;;;;;5047136;28;20778;-77
2023/03/06 02:41:28;;;;;;;1.60;1.50;;;15.50;71.70;;;;;;5038675;28;20056;-76
2023/03/06 02:43:54;;;;;;;1.90;1.80;;;15.50;71.80;;;;;;5066024;28;20044;-77
2023/03/06 02:46:19;;;;;;;1.90;1.80;;;15.50;72.00;;;;;;5064653;28;20044;-77
2023/03/06 02:48:45;;;;;;;1.92;1.83;;;15.50;71.90;;;;;;5082371;28;20119;-80
2023/03/06 02:51:11;;;;;;;1.88;1.77;;;15.50;71.90;;;;;;5096174;28;20123;-80
2023/03/06 02:53:36;;;;;;;2.05;1.95;;;15.50;71.90;;;;;;5085505;28;20101;-81
2023/03/06 02:56:02;;;;;;;1.65;1.55;;;15.50;71.80;;;;;;5092559;28;20123;-80
2023/03/06 02:58:27;;;;;;;2.00;1.90;;;15.50;72.00;;;;;;5086684;28;20040;-80
2023/03/06 03:00:53;;;;;;;2.13;1.85;;;15.50;71.80;;;;;;5087386;28;20043;-80
2023/03/06 03:03:18;;;;;;;1.70;1.60;;;15.50;71.90;;;;;;5069129;28;20041;-80
2023/03/06 03:05:44;;;;;;;1.52;1.42;;;15.50;71.80;;;;;;5091142;28;20077;-80
2023/03/06 03:08:10;;;;;;;1.90;1.80;;;15.40;72.10;;;;;;5087181;28;20036;-80
2023/03/06 03:10:35;;;;;;;1.73;1.63;;;15.50;71.90;;;;;;5088570;28;20047;-80
2023/03/06 03:13:01;;;;;;;1.67;1.58;;;15.50;72.00;;;;;;5088883;28;20089;-79
2023/03/06 03:15:26;;;;;;;1.52;1.42;;;15.50;71.70;;;;;;5071513;28;20056;-80
2023/03/06 03:17:52;;;;;;;1.88;1.77;;;15.40;72.30;;;;;;5088622;28;20044;-81
2023/03/06 03:20:19;;;;;;;1.42;1.33;;;15.40;72.20;;;;;;5068485;28;20036;-80
2023/03/06 03:22:52;;;;;;;1.45;1.35;;;15.40;72.30;;;;;;5086602;28;20036;-80
2023/03/06 03:25:17;;;;;;;1.70;1.60;;;15.40;72.20;;;;;;5065128;28;20056;-80
2023/03/06 03:27:43;;;;;;;1.80;1.70;;;15.40;72.20;;;;;;5083601;28;20039;-80
2023/03/06 03:30:09;;;;;;;1.58;1.50;;;15.40;72.60;;;;;;5086837;28;20035;-80
2023/03/06 03:32:35;;;;;;;1.63;1.52;;;15.40;72.60;;;;;;5091430;28;20048;-81
2023/03/06 03:35:00;;;;;;;1.77;1.67;;;15.40;72.40;;;;;;5087965;28;20055;-79
2023/03/06 03:37:26;;;;;;;1.92;1.83;;;15.40;72.60;;;;;;5090356;28;20044;-81
2023/03/06 03:39:51;;;;;;;1.70;1.60;;;15.40;72.50;;;;;;5093929;28;20044;-81
2023/03/06 03:42:17;;;;;;;1.90;1.80;;;15.40;72.60;;;;;;5091114;28;20516;-80
2023/03/06 03:44:43;;;;;;;1.90;1.80;;;15.40;72.50;;;;;;5085221;28;20052;-81
2023/03/06 03:47:08;;;;;;;1.70;1.60;;;15.40;72.60;;;;;;5070968;28;20168;-80
2023/03/06 03:49:34;;;;;;;1.38;1.38;;;15.40;72.60;;;;;;5087195;28;20039;-80
2023/03/06 03:51:59;;;;;;;1.80;1.70;;;15.40;72.40;;;;;;5098593;28;20519;-81
2023/03/06 03:54:25;;;;;;;1.70;1.58;;;15.40;72.60;;;;;;5092073;28;20052;-80
2023/03/06 03:56:51;;;;;;;1.63;1.52;;;15.40;72.70;;;;;;5081046;28;20497;-80
2023/03/06 03:59:16;;;;;;;1.73;1.63;;;15.40;72.60;;;;;;5086221;28;20068;-80
2023/03/06 04:01:42;;;;;;;1.70;1.60;;;15.30;72.70;;;;;;5085292;28;20512;-80
2023/03/06 04:04:07;;;;;;;1.80;1.70;;;15.40;72.60;;;;;;5085817;28;20075;-79
2023/03/06 04:06:33;;;;;;;1.95;1.85;;;15.40;72.60;;;;;;5091497;28;20101;-80
2023/03/06 04:08:58;;;;;;;1.70;1.60;;;15.30;72.70;;;;;;5091722;28;20509;-80
2023/03/06 04:11:24;;;;;;;1.27;1.27;;;15.40;72.80;;;;;;5065802;28;20182;-80
2023/03/06 04:13:49;;;;;;;1.58;1.48;;;15.30;72.80;;;;;;5068470;28;20039;-80
2023/03/06 04:16:15;;;;;;;1.65;1.55;;;15.40;73.00;;;;;;5089859;28;20055;-80
2023/03/06 04:18:41;;;;;;;1.63;1.52;;;15.30;72.70;;;;;;5089887;28;20040;-80
2023/03/06 04:21:06;;;;;;;1.80;1.70;;;15.30;72.80;;;;;;5089244;28;20036;-80
2023/03/06 04:23:32;;;;;;;1.77;1.67;;;15.30;72.80;;;;;;5069024;28;20039;-80
2023/03/06 04:25:57;;;;;;;1.60;1.50;;;15.30;72.70;;;;;;5087365;28;20097;-80
2023/03/06 04:28:23;;;;;;;1.80;1.70;;;15.30;72.90;;;;;;5088763;28;20055;-79
2023/03/06 04:30:49;;;;;;;1.40;1.30;;;15.30;72.80;;;;;;5092138;28;20155;-80
2023/03/06 04:33:14;;;;;;;1.80;1.70;;;15.30;72.70;;;;;;5069867;28;20043;-80
2023/03/06 04:35:40;;;;;;;1.95;1.85;;;15.30;72.80;;;;;;5064091;28;20609;-80
2023/03/06 04:38:06;;;;;;;1.70;1.48;;;15.30;73.50;;;;;;5084105;28;20040;-80
2023/03/06 04:40:32;;;;;;;1.48;1.40;;;15.30;72.90;;;;;;5095129;28;20108;-80
2023/03/06 04:42:59;;;;;;;1.67;1.58;;;15.30;72.90;;;;;;5094149;28;20036;-81
2023/03/06 04:45:25;;;;;;;1.40;1.40;;;15.30;72.90;;;;;;5073265;28;20109;-80
2023/03/06 04:47:50;;;;;;;1.40;1.30;;;15.30;72.90;;;;;;5070208;28;20047;-80
2023/03/06 04:50:16;;;;;;;1.70;1.60;;;15.30;72.90;;;;;;5086143;28;20036;-80
2023/03/06 04:52:42;;;;;;;1.50;1.50;;;15.30;73.00;;;;;;5093094;28;20036;-80
2023/03/06 04:55:08;;;;;;;1.60;1.50;;;15.30;73.10;;;;;;5068203;28;20052;-80
2023/03/06 04:57:35;;;;;;;1.20;1.20;;;15.30;73.10;;;;;;5093322;28;20417;-80
2023/03/06 05:00:03;;;;;;;1.67;1.58;;;15.20;73.10;;;;;;5088853;28;20498;-80
2023/03/06 05:02:28;;;;;;;1.50;1.45;;;15.30;73.10;;;;;;5089572;28;20040;-80
2023/03/06 05:04:54;;;;;;;1.48;1.48;;;15.20;73.00;;;;;;5092654;28;20048;-81
2023/03/06 05:07:20;;;;;;;1.75;1.70;;;15.30;72.50;;;;;;5091331;28;20423;-81
2023/03/06 05:09:45;;;;;;;1.65;1.55;;;15.30;73.10;;;;;;5088445;28;20040;-81
2023/03/06 05:12:11;;;;;;;1.27;1.10;;;15.30;73.10;;;;;;5097420;28;20036;-80
2023/03/06 05:14:36;;;;;;;1.60;1.50;;;15.30;73.00;;;;;;5085033;28;20044;-81
2023/03/06 05:17:02;;;;;;;1.77;1.30;;;15.30;73.10;;;;;;5067831;28;20371;-81
2023/03/06 05:19:28;;;;;;;1.10;1.10;;;15.20;73.10;;;;;;5084074;28;20041;-82
2023/03/06 05:21:54;;;;;;;1.60;1.50;;;15.30;73.20;;;;;;5088870;28;20428;-81
2023/03/06 05:24:19;;;;;;;1.40;1.30;;;15.20;73.10;;;;;;5084837;28;20051;-80
2023/03/06 05:26:45;;;;;;;1.20;1.20;;;15.20;73.10;;;;;;5091388;28;20408;-81
2023/03/06 05:29:10;;;;;;;1.38;1.27;;;15.20;73.20;;;;;;5070932;28;20116;-81
2023/03/06 05:31:36;;;;;;;1.38;1.38;;;15.20;73.20;;;;;;5088883;28;20504;-81
2023/03/06 05:34:02;;;;;;;1.20;1.13;;;15.20;73.10;;;;;;5090106;28;20044;-81
2023/03/06 05:36:27;;;;;;;1.25;1.25;;;15.20;73.10;;;;;;5092649;28;20059;-81
2023/03/06 05:38:53;;;;;;;1.42;1.33;;;15.20;73.20;;;;;;5090872;28;20123;-81
2023/03/06 05:41:18;;;;;;;1.35;1.30;;;15.20;73.20;;;;;;5086570;28;20036;-81
2023/03/06 05:43:44;;;;;;;1.45;1.35;;;15.20;74.10;;;;;;5083843;28;20063;-81
2023/03/06 05:46:10;;;;;;;1.42;1.33;;;15.20;73.20;;;;;;5089867;28;20540;-79
2023/03/06 05:48:36;;;;;;;1.33;1.33;;;15.20;73.20;;;;;;5068827;28;20060;-80
2023/03/06 05:51:02;;;;;;;1.42;1.42;;;15.20;73.20;;;;;;5092690;28;20036;-81
2023/03/06 05:53:28;;;;;;;1.38;1.30;;;15.20;73.20;;;;;;5085904;28;20055;-80
2023/03/06 05:56:00;;;;;;;1.38;1.38;;;15.20;73.20;;;;;;5058819;28;20516;-81
2023/03/06 05:58:26;;;;;;;1.30;1.30;;;15.20;73.30;;;;;;5081927;28;20032;-81
2023/03/06 06:00:52;;;;;;;1.20;1.20;;;15.20;73.30;;;;;;5053143;28;20039;-81
2023/03/06 06:03:18;;;;;;;1.33;1.30;;;15.20;73.30;;;;;;5088092;28;20044;-80
2023/03/06 06:05:44;;;;;;;1.25;1.20;;;15.20;73.10;;;;;;5088954;28;20047;-81
2023/03/06 06:08:09;;;;;;;1.60;1.60;;;15.20;73.30;;;;;;5086949;28;20127;-80
2023/03/06 06:10:35;;;;;;;1.23;1.20;;;15.20;73.30;;;;;;5087085;28;20274;-79
2023/03/06 06:13:00;;;;;;;2.50;1.40;;;15.10;73.10;;;;;;5082973;28;20074;-81
2023/03/06 06:15:27;;;;;;;2.40;2.00;;;15.20;72.90;;;;;;5066823;28;20591;-80
2023/03/06 06:17:54;;;;;;;4.85;1.80;;;15.30;72.50;;;;;;5087375;28;20059;-78
2023/03/06 06:20:20;;;;;;;1.92;1.83;;;15.30;72.60;;;;;;5067377;28;20520;-79
2023/03/06 06:22:46;;;;;;;2.60;1.58;;;15.30;72.30;;;;;;5094353;28;20147;-80
2023/03/06 06:25:11;;;;;;;4.45;1.70;;;15.30;72.20;;;;;;5044466;28;20121;-79
2023/03/06 06:27:37;;;;;;;3.70;1.50;;;15.30;71.60;;;;;;5090157;28;20116;-79
2023/03/06 06:30:04;;;;;;;2.35;1.50;;;15.30;72.10;;;;;;5070583;28;20535;-79
2023/03/06 06:32:29;;;;;;;1.55;1.40;;;15.30;72.20;;;;;;5065409;28;20159;-79
2023/03/06 06:34:55;;;;;;;1.60;1.50;;;15.30;72.50;;;;;;5085395;28;20432;-80
2023/03/06 06:37:21;;;;;;;4.38;1.80;;;15.30;71.70;;;;;;5044131;28;20051;-79
2023/03/06 06:39:46;;;;;;;1.50;1.40;;;15.30;72.00;;;;;;5082720;28;20048;-78
2023/03/06 06:42:12;;;;;;;1.30;1.30;;;15.30;72.40;;;;;;5087705;28;20453;-77
2023/03/06 06:44:37;;;;;;;2.00;1.90;;;15.30;72.20;;;;;;5086081;28;20048;-78
2023/03/06 06:47:04;;;;;;;1.67;1.60;;;15.40;72.90;;;;;;4715498;28;9999736;-78
2023/03/06 06:49:30;;;;;;;2.00;1.90;;;15.30;73.10;;;;;;5061549;28;20101;-77
2023/03/06 06:51:56;;;;;;;2.67;1.50;;;15.30;72.30;;;;;;5047937;28;20066;-77
2023/03/06 06:54:21;;;;;;;2.78;1.77;;;15.30;72.60;;;;;;5069375;28;20123;-78
2023/03/06 06:56:47;;;;;;;3.58;2.00;;;15.30;72.30;;;;;;5090001;28;20043;-77
2023/03/06 06:59:12;;;;;;;2.55;1.88;;;15.30;72.50;;;;;;5086456;28;20036;-77
2023/03/06 07:01:38;;;;;;;2.03;1.63;;;15.30;72.50;;;;;;5061730;28;20493;-77
2023/03/06 07:04:04;;;;;;;1.70;1.60;;;15.30;72.50;;;;;;5059005;28;20056;-77
2023/03/06 07:06:29;;;;;;;1.52;1.42;;;15.30;72.50;;;;;;5081252;28;20037;-78
2023/03/06 07:08:55;;;;;;;2.78;1.63;;;15.30;72.30;;;;;;5067592;28;20071;-78
2023/03/06 07:11:20;;;;;;;3.13;1.70;;;15.30;72.20;;;;;;5090016;28;20042;-78
2023/03/06 07:13:46;;;;;;;1.67;1.40;;;15.30;72.40;;;;;;5068560;28;20031;-78
2023/03/06 07:16:12;;;;;;;1.63;1.52;;;15.30;72.60;;;;;;5064768;28;20093;-78
2023/03/06 07:18:37;;;;;;;2.00;1.80;;;15.30;72.80;;;;;;5086264;28;20052;-78
2023/03/06 07:21:03;;;;;;;1.90;1.20;;;15.30;72.90;;;;;;5093524;28;20055;-78
2023/03/06 07:23:29;;;;;;;1.60;1.50;;;15.20;72.80;;;;;;5064278;28;20531;-78
2023/03/06 07:25:55;;;;;;;1.52;1.42;;;15.20;73.00;;;;;;5067888;28;20075;-77
2023/03/06 07:28:21;;;;;;;1.63;1.50;;;15.20;72.80;;;;;;5048945;28;20040;-78
2023/03/06 07:30:47;;;;;;;1.55;1.45;;;15.20;74.20;;;;;;5074204;28;20063;-78
2023/03/06 07:33:12;;;;;;;3.47;1.70;;;15.30;73.20;;;;;;5070891;28;20160;-78
2023/03/06 07:35:39;;;;;;;1.88;1.20;;;15.30;74.00;;;;;;5085870;28;20044;-78
2023/03/06 07:38:05;;;;;;;3.05;1.55;;;15.30;73.00;;;;;;5072718;28;20036;-78
2023/03/06 07:40:31;;;;;;;1.50;1.40;;;15.30;73.20;;;;;;5092057;28;20047;-79
2023/03/06 07:42:56;;;;;;;1.92;1.80;;;15.30;72.60;;;;;;5074459;28;20380;-78
2023/03/06 07:45:22;;;;;;;1.60;1.50;;;15.30;72.90;;;;;;5068868;28;20119;-79
2023/03/06 07:47:51;;;;;;;1.80;1.70;;;15.40;72.70;;;;;;5068986;28;20059;-79
2023/03/06 07:50:17;;;;;;;1.25;1.25;;;15.30;73.00;;;;;;5085568;28;20538;-79
2023/03/06 07:52:43;;;;;;;2.25;1.50;;;15.30;73.20;;;;;;5089148;28;20495;-78
2023/03/06 07:55:09;;;;;;;1.30;1.30;;;15.30;72.90;;;;;;5090086;28;20071;-79
2023/03/06 07:57:35;;;;;;;1.17;1.15;;;15.30;72.50;;;;;;5094400;28;20050;-79
2023/03/06 08:00:03;;;;;;;2.13;1.95;;;15.30;72.90;;;;;;5053958;28;20112;-79
2023/03/06 08:02:28;;;;;;;1.65;1.55;;;15.30;72.80;;;;;;5065044;28;20054;-78
2023/03/06 08:04:54;;;;;;;1.60;1.50;;;15.20;72.90;;;;;;5085167;28;20127;-79
2023/03/06 08:07:19;;;;;;;1.83;1.73;;;15.30;73.00;;;;;;5069415;28;20040;-79
2023/03/06 08:09:45;;;;;;;2.17;1.38;;;15.30;72.90;;;;;;5070531;28;20545;-78
2023/03/06 08:12:11;;;;;;;1.42;1.33;;;15.30;72.80;;;;;;5057701;28;20044;-78
2023/03/06 08:14:36;;;;;;;1.60;1.50;;;15.20;73.00;;;;;;5070131;28;20162;-78
2023/03/06 08:17:02;;;;;;;1.50;1.40;;;15.20;73.00;;;;;;5091960;28;20066;-79
2023/03/06 08:19:27;;;;;;;1.38;1.27;;;15.20;73.00;;;;;;5070264;28;20170;-79
2023/03/06 08:21:53;;;;;;;1.40;1.40;;;15.20;73.30;;;;;;5081334;28;20147;-79
2023/03/06 08:24:19;;;;;;;1.65;1.55;;;15.20;73.00;;;;;;5087768;28;20043;-78
2023/03/06 08:26:44;;;;;;;1.55;1.48;;;15.20;73.00;;;;;;5065166;28;20056;-79
2023/03/06 08:29:10;;;;;;;1.60;1.50;;;15.20;72.80;;;;;;5064859;28;20036;-79
2023/03/06 08:31:37;;;;;;;1.55;1.45;;;15.20;73.10;;;;;;5090213;28;20557;-79
2023/03/06 08:34:05;;;;;;;1.70;1.60;;;15.20;73.00;;;;;;5050152;28;20190;-79
2023/03/06 08:36:30;;;;;;;1.60;1.50;;;15.20;72.60;;;;;;5030599;28;20055;-79
2023/03/06 08:38:56;;;;;;;1.35;1.30;;;15.20;73.00;;;;;;5046088;28;20040;-79
2023/03/06 08:41:22;;;;;;;1.92;1.83;;;15.20;72.80;;;;;;5043254;28;20040;-79
2023/03/06 08:43:48;;;;;;;1.33;1.33;;;15.20;73.20;;;;;;5050864;28;20342;-79
2023/03/06 08:46:13;;;;;;;2.40;1.60;;;15.20;72.90;;;;;;5033358;28;20056;-78
2023/03/06 08:48:39;;;;;;;1.85;1.75;;;15.20;73.10;;;;;;5069286;28;20052;-79
2023/03/06 08:51:05;;;;;;;1.52;1.48;;;15.20;73.60;;;;;;5085679;28;20036;-79
2023/03/06 08:53:30;;;;;;;1.50;1.40;;;15.20;73.90;;;;;;5066305;28;20052;-78
2023/03/06 08:55:56;;;;;;;1.70;1.60;;;15.20;73.50;;;;;;5084515;28;20036;-79
2023/03/06 08:58:21;;;;;;;2.05;1.95;;;15.20;73.70;;;;;;5082216;28;20093;-79
2023/03/06 09:00:47;;;;;;;1.73;1.73;;;15.20;73.60;;;;;;5083439;28;20067;-79
2023/03/06 09:03:13;;;;;;;1.50;1.40;;;15.20;73.80;;;;;;5072140;28;20115;-79
2023/03/06 09:05:39;;;;;;;3.00;1.50;;;15.20;73.90;;;;;;5083556;28;20048;-79
2023/03/06 09:08:05;;;;;;;1.15;1.15;;;15.20;74.10;;;;;;5072578;28;20036;-79
2023/03/06 09:10:30;;;;;;;1.73;1.63;;;15.20;74.00;;;;;;5052497;28;20090;-79
2023/03/06 09:12:56;;;;;;;1.50;1.45;;;15.10;73.80;;;;;;5074086;28;20032;-79
2023/03/06 09:15:22;;;;;;;2.88;1.40;;;15.10;74.00;;;;;;5084997;28;20595;-78
2023/03/06 09:17:47;;;;;;;1.77;1.38;;;15.10;73.90;;;;;;5083692;28;20047;-79
2023/03/06 09:20:13;;;;;;;1.80;1.60;;;15.10;73.90;;;;;;5073052;28;20455;-79
2023/03/06 09:22:41;;;;;;;1.50;1.40;;;15.10;74.00;;;;;;5073313;28;20032;-79
2023/03/06 09:25:07;;;;;;;1.40;1.38;;;15.10;73.90;;;;;;5086291;28;20028;-79
2023/03/06 09:27:32;;;;;;;2.40;1.67;;;15.10;74.10;;;;;;5087236;28;20048;-79
2023/03/06 09:29:58;;;;;;;1.20;1.10;;;15.10;74.70;;;;;;5075272;28;20370;-79
2023/03/06 09:32:24;;;;;;;1.40;1.40;;;15.10;74.10;;;;;;5069688;28;20690;-78
2023/03/06 09:34:49;;;;;;;1.23;1.23;;;15.10;74.10;;;;;;5086079;28;20047;-79
2023/03/06 09:37:15;;;;;;;1.75;1.65;;;15.10;73.80;;;;;;5087689;28;20513;-79
2023/03/06 09:39:41;;;;;;;1.70;1.40;;;15.10;74.10;;;;;;5086762;28;20036;-79
2023/03/06 09:42:07;;;;;;;1.58;1.48;;;15.10;74.10;;;;;;5088269;28;20059;-76
2023/03/06 09:44:34;;;;;;;2.45;1.30;;;15.10;74.30;;;;;;5075048;28;20080;-75
2023/03/06 09:47:40;;;;;;;1.42;1.33;;;15.10;74.90;;;;;;5074036;28;20044;-75
2023/03/06 09:50:09;;;;;;;1.30;1.30;;;15.20;75.30;;;;;;5071167;28;20040;-75
2023/03/06 09:53:14;;;;;;;1.65;1.40;;;15.20;75.40;;;;;;5083508;28;20044;-76
2023/03/06 09:55:39;;;;;;;1.30;1.20;;;15.20;75.20;;;;;;5089496;28;20044;-74
2023/03/06 09:58:13;;;;;;;1.10;1.00;;;15.20;75.20;;;;;;5087534;28;20055;-75
2023/03/06 10:00:41;;;;;;;0.93;0.93;;;15.20;74.80;;;;;;5086989;28;20040;-75
2023/03/06 10:03:25;;;;;;;1.70;1.00;;;15.20;75.00;;;;;;5075791;28;20083;-75
2023/03/06 10:05:57;;;;;;;3.10;1.13;;;15.20;75.10;;;;;;5087064;28;20136;-75
2023/03/06 10:08:30;;;;;;;1.30;1.30;;;15.20;75.00;;;;;;5086708;28;20536;-75
2023/03/06 10:11:01;;;;;;;1.67;1.27;;;15.20;75.20;;;;;;5070193;28;20055;-75
2023/03/06 10:13:28;;;;;;;1.00;1.00;;;15.20;74.80;;;;;;5053210;28;20592;-75
2023/03/06 10:16:10;;;;;;;1.73;1.42;;;15.20;74.60;;;;;;5088353;28;20040;-75
2023/03/06 10:18:37;;;;;;;1.50;1.40;;;15.20;74.40;;;;;;5072685;28;20063;-75
2023/03/06 10:21:05;;;;;;;1.55;1.45;;;15.20;74.40;;;;;;5076770;28;20040;-75
2023/03/06 10:23:37;;;;;;;1.30;1.30;;;15.20;74.60;;;;;;5073087;28;20040;-75
2023/03/06 10:26:14;;;;;;;1.38;1.27;;;15.20;74.20;;;;;;5070717;28;20039;-75
2023/03/06 10:29:10;;;;;;;2.17;1.40;;;15.20;74.20;;;;;;5076126;28;20088;-75
2023/03/06 10:31:37;;;;;;;3.10;1.83;;;15.20;74.30;;;;;;5076846;28;20512;-75
2023/03/06 10:34:03;;;;;;;2.05;1.75;;;15.20;74.00;;;;;;5069488;28;20583;-75
2023/03/06 10:36:28;;;;;;;1.77;1.67;;;15.20;74.00;;;;;;5084903;28;20044;-75
2023/03/06 10:38:55;;;;;;;2.53;1.67;;;15.20;74.20;;;;;;5087078;28;20028;-75
2023/03/06 10:41:28;;;;;;;1.50;1.40;;;15.20;73.50;;;;;;5069863;28;20045;-75
2023/03/06 10:44:00;;;;;;;1.60;1.50;;;15.30;74.10;;;;;;5084403;28;20090;-75
2023/03/06 10:46:26;;;;;;;1.30;1.30;;;15.20;74.10;;;;;;5086369;28;20048;-74
2023/03/06 10:49:00;;;;;;;2.33;1.85;;;15.30;73.90;;;;;;5099152;28;20039;-75
2023/03/06 10:51:26;;;;;;;1.40;1.30;;;15.30;73.80;;;;;;5088645;28;20050;-75
2023/03/06 10:54:21;;;;;;;1.45;1.35;;;15.30;74.50;;;;;;5074002;28;20044;-75
2023/03/06 10:56:47;;;;;;;1.55;1.45;;;15.30;73.90;;;;;;5064479;28;20063;-75
2023/03/06 10:59:27;;;;;;;1.25;1.20;;;15.30;73.80;;;;;;5085661;28;20076;-75
2023/03/06 11:01:57;;;;;;;1.38;1.38;;;15.30;73.80;;;;;;5084444;28;20040;-75
2023/03/06 11:04:25;;;;;;;1.70;1.60;;;15.30;73.70;;;;;;5070056;28;20428;-75
2023/03/06 11:07:16;;;;;;;1.48;1.38;;;15.30;73.60;;;;;;5084265;28;20043;-75
2023/03/06 11:09:58;;;;;;;1.30;1.20;;;15.30;73.80;;;;;;5085344;28;20139;-75
2023/03/06 11:12:38;;;;;;;1.30;1.20;;;15.30;73.80;;;;;;5086905;28;20581;-75
2023/03/06 11:15:13;;;;;;;1.55;1.45;;;15.30;74.00;;;;;;5087379;28;20059;-74
2023/03/06 11:18:03;;;;;;;1.33;1.23;;;15.30;73.90;;;;;;5084844;28;20032;-76
2023/03/06 11:20:41;;;;;;;2.72;1.58;;;15.40;73.80;;;;;;5084668;28;20044;-75
2023/03/06 11:23:17;;;;;;;2.25;1.30;;;15.40;74.20;;;;;;5082193;28;20301;-76
2023/03/06 11:25:52;;;;;;;2.05;1.75;;;15.40;74.80;;;;;;5070391;28;20504;-78
2023/03/06 11:28:25;;;;;;;1.73;1.63;;;15.50;74.40;;;;;;5070726;28;20863;-76
2023/03/06 11:30:53;;;;;;;1.25;1.20;;;15.40;73.90;;;;;;5074645;28;20689;-78
2023/03/06 11:33:28;;;;;;;3.08;1.80;;;15.40;74.20;;;;;;5072623;28;20051;-76
2023/03/06 11:35:59;;;;;;;2.17;2.03;;;15.50;74.30;;;;;;5075006;28;20136;-77
2023/03/06 11:38:32;;;;;;;2.35;1.95;;;15.40;73.80;;;;;;5071665;28;20526;-77
2023/03/06 11:40:59;;;;;;;2.58;2.38;;;15.40;73.70;;;;;;5063166;28;20045;-77
2023/03/06 11:44:01;;;;;;;1.95;1.85;;;15.40;74.20;;;;;;5068942;28;20028;-75
2023/03/06 11:46:37;;;;;;;2.20;2.00;;;15.40;74.90;;;;;;5002066;28;20046;-75
2023/03/06 11:49:15;;;;;;;2.08;1.88;;;15.40;73.40;;;;;;5006585;28;20056;-76
2023/03/06 11:51:43;;;;;;;3.75;3.10;;;15.40;73.40;;;;;;4987857;28;20046;-76
2023/03/06 11:54:09;;;;;;;6.13;2.80;;;15.40;73.20;;;;;;5003336;28;20419;-77
2023/03/06 11:56:43;;;;;;;4.20;2.63;;;15.40;73.20;;;;;;4986143;28;20053;-76
2023/03/06 11:59:27;;;;;;;3.05;1.70;;;15.40;73.40;;;;;;4990478;28;20133;-76
2023/03/06 12:02:26;;;;;;;4.82;2.20;;;15.40;73.70;;;;;;5004917;28;20523;-74
2023/03/06 12:05:20;;;;;;;1.98;1.80;;;15.40;74.40;;;;;;5007945;28;20068;-75
2023/03/06 12:08:02;;;;;;;2.40;2.20;;;15.50;74.40;;;;;;4992196;28;20066;-76
2023/03/06 12:10:31;;;;;;;2.00;1.90;;;15.50;74.70;;;;;;5018378;28;20466;-75
2023/03/06 12:13:17;;;;;;;2.80;2.03;;;15.50;74.90;;;;;;5007910;28;20042;-75
2023/03/06 12:16:21;;;;;;;1.90;1.75;;;15.50;74.60;;;;;;5008328;28;20041;-76
2023/03/06 12:18:57;;;;;;;1.85;1.67;;;15.50;74.10;;;;;;4992409;28;20053;-77
2023/03/06 12:21:50;;;;;;;4.72;2.08;;;15.50;74.50;;;;;;5079041;28;20063;-77
2023/03/06 12:24:24;;;;;;;2.42;1.80;;;15.50;74.60;;;;;;5089779;28;20035;-77
2023/03/06 12:27:11;;;;;;;1.92;1.65;;;15.50;74.90;;;;;;5066292;28;20459;-77
2023/03/06 12:29:52;;;;;;;2.28;2.05;;;15.50;75.00;;;;;;5083133;28;20074;-76
2023/03/06 12:32:47;;;;;;;2.30;1.77;;;15.50;74.80;;;;;;5092441;28;20577;-76
2023/03/06 12:35:37;;;;;;;2.80;1.60;;;15.50;74.80;;;;;;5067654;28;20508;-77
2023/03/06 12:38:24;;;;;;;2.10;1.40;;;15.50;74.80;;;;;;5089590;28;20063;-76
2023/03/06 12:41:12;;;;;;;1.85;1.30;;;15.50;74.60;;;;;;5089869;28;20523;-76
2023/03/06 12:43:47;;;;;;;2.30;1.52;;;15.50;74.60;;;;;;5072021;28;20067;-76
2023/03/06 12:46:22;;;;;;;3.00;1.70;;;15.50;74.70;;;;;;5065744;28;20097;-76
2023/03/06 12:49:13;;;;;;;1.92;1.77;;;15.50;74.60;;;;;;5072035;28;20049;-76
2023/03/06 12:51:39;;;;;;;1.83;1.70;;;15.50;74.50;;;;;;5065409;28;20042;-76
2023/03/06 12:54:05;;;;;;;1.60;1.45;;;15.50;74.40;;;;;;5050873;28;20040;-76
2023/03/06 12:56:30;;;;;;;2.22;1.33;;;15.50;74.40;;;;;;5059509;28;20048;-76